This is the latest recevied weather packets stored in our database for station/object N9CQS-15. If no packets are shown the sender has not sent any weather packets the latest 1 day(s).
| Time | Temp. | Humidity | Pressure | Rain* | Wind** | Luminosity | Snow |
|---|---|---|---|---|---|---|---|
| 1836274675 | 19.44° C | 84% | 1017 hPa | 1.27 mm | 0 m/s | - | - |
| 1778038742 | 8.33° C | 93% | 1012.2 hPa | 22.35 mm | 0.45 m/s, 199° | - | - |
| 1778038142 | 8.33° C | 92% | 1012.3 hPa | 22.35 mm | 0 m/s | - | - |
| 1778037541 | 8.33° C | 92% | 1012.1 hPa | 22.35 mm | 0.45 m/s, 202° | - | - |
| 1778036941 | 8.33° C | 92% | 1012 hPa | 22.35 mm | 0.45 m/s, 197° | - | - |
| 1778036342 | 8.33° C | 92% | 1012 hPa | 22.86 mm | 0 m/s | - | - |
| 1778035741 | 8.33° C | 92% | 1011.9 hPa | 22.86 mm | 0.45 m/s, 204° | - | - |
| 1778035142 | 8.33° C | 92% | 1011.4 hPa | 22.86 mm | 0 m/s | - | - |
| 1778034542 | 8.33° C | 92% | 1011.4 hPa | 22.86 mm | 0 m/s | - | - |
| 1778033942 | 8.33° C | 92% | 1011.6 hPa | 22.86 mm | 0 m/s | - | - |
| 1778033342 | 8.33° C | 92% | 1011.4 hPa | 22.86 mm | 0.45 m/s, 185° | - | - |
| 1778032741 | 7.78° C | 91% | 1011.1 hPa | 21.84 mm | 0 m/s | - | - |
| 1778032142 | 7.78° C | 91% | 1010.7 hPa | 21.84 mm | 0 m/s | - | - |
| 1778031542 | 7.78° C | 90% | 1010.4 hPa | 21.84 mm | 0 m/s | - | - |
| 1778030942 | 7.78° C | 90% | 1010.3 hPa | 21.84 mm | 0 m/s | - | - |
| 1778030341 | 7.78° C | 89% | 1010.4 hPa | 21.84 mm | 0 m/s | - | - |
| 1778029742 | 7.78° C | 89% | 1010.6 hPa | 21.84 mm | 0 m/s | - | - |
| 1778029142 | 8.33° C | 89% | 1010.7 hPa | 21.59 mm | 0 m/s | - | - |
| 1778028542 | 7.78° C | 88% | 1010.2 hPa | 21.59 mm | 0 m/s | - | - |
| 1778027941 | 7.78° C | 88% | 1010.2 hPa | 21.59 mm | 0 m/s | - | - |
| 1778027341 | 7.78° C | 88% | 1009.9 hPa | 21.59 mm | 0 m/s | - | - |
| 1778026742 | 8.33° C | 87% | 1010.2 hPa | 21.59 mm | 0 m/s | - | - |
| 1778026142 | 8.33° C | 85% | 1010.2 hPa | 21.59 mm | 0 m/s | - | - |
| 1778025541 | 8.33° C | 82% | 1009.9 hPa | 21.08 mm | 0 m/s | - | - |
| 1778024942 | 8.33° C | 82% | 1010.2 hPa | 21.08 mm | 0.45 m/s, 16° | - | - |
* Rain latest 24 hours (hover to see other rain measurements)
** Current wind speed in m/s (hover to see current wind gust speed)